Nearby METAR Reports

 

ELLX - Luxembourg (aut), Luxembourg
Distance from station: NNE 33km
Updated: 24/07/2021 18:20
Thunderstorm rain, Mostly cloudy
Thunderstorm rain, Mostly cloudy
 Wind from S
Wind: S 20 km/h
Temperature: 16°C
Dew Point: 16°C
Humidity: 100%
Barometer: 1011 hPa
Summary: Thunderstorm Rain
Clouds: Mostly cloudy
Visibility: 5 km
Cloud details: Few Clouds 152 m
Mostly cloudy 2286 m
2021/07/24 16:20 ELLX 241620Z 19011KT 150V210 4500 TSRA FEW005 BKN075CB 16/16 Q1011 BECMG 6000 NSW
LFJL - Metz-Nancy-Lorra, France
Distance from station: SSE 46km
Updated: 24/07/2021 18:30
Thunderstorm
Thunderstorm
 Wind from N
Wind: N 19 km/h
Temperature: 21°C
Dew Point: 18°C
Humidity: 83%
Barometer: 1010 hPa
Clouds: Thunderstorm
Visibility: 10 km
Cloud details: Mostly cloudy 610 m
Overcast 792 m
2021/07/24 16:30 LFJL 241630Z AUTO 35010KT 9999 BKN020/// OVC026/// ///CB 21/18 Q1010 TEMPO SHRA BECMG 29006KT BKN040
 
EDDR - Saarbruecken, Germany
Distance from station: E 78km
Updated: 24/07/2021 18:20
Few Clouds
Few Clouds
 Wind from varies
Wind: varies 4 km/h
Temperature: 24°C
Dew Point: 17°C
Humidity: 65%
Barometer: 1010 hPa
Clouds: Few Clouds
Visibility: 10 km
Cloud details: Few Clouds 1067 m
2021/07/24 16:20 EDDR 241620Z VRB02KT 9999 FEW035TCU 24/17 Q1010 NOSIG
LFSN - Nancy/Essey, France
Distance from station: S 78km
Updated: 24/07/2021 18:30
Thunderstorm
Thunderstorm
 Wind from SW
Wind: SW 11 km/h
Temperature: 24°C
Dew Point: 17°C
Humidity: 65%
Barometer: 1010 hPa
Clouds: Thunderstorm
Visibility: 10 km
Cloud details: Few Clouds 975 m
Mostly cloudy 3962 m
Mostly cloudy 5182 m
2021/07/24 16:30 LFSN 241630Z AUTO 23006KT 190V270 9999 FEW032/// BKN130/// BKN170/// ///TCU 24/17 Q1010